createdAt,value
2022-11-19T00:02:18.159Z,17.08
2022-11-19T00:05:06.745Z,16.40
2022-11-19T00:07:56.424Z,16.73
2022-11-19T00:10:45.676Z,16.75
2022-11-19T00:13:33.061Z,15.55
2022-11-19T00:16:21.404Z,15.07
2022-11-19T00:19:11.560Z,14.60
2022-11-19T00:21:59.868Z,13.37
2022-11-19T00:24:49.561Z,13.30
2022-11-19T00:27:37.947Z,12.13
2022-11-19T00:30:47.141Z,12.00
2022-11-19T00:33:35.183Z,12.30
2022-11-19T00:36:24.150Z,13.23
2022-11-19T00:39:12.522Z,12.48
2022-11-19T00:42:02.215Z,11.73
2022-11-19T00:44:50.595Z,12.27
2022-11-19T00:47:38.925Z,11.37
2022-11-19T00:50:27.315Z,12.63
2022-11-19T00:53:15.709Z,12.00
2022-11-19T00:56:06.668Z,11.43
2022-11-19T00:58:57.009Z,10.15
2022-11-19T01:01:45.413Z,7.85
2022-11-19T01:04:33.771Z,10.17
2022-11-19T01:07:22.199Z,10.27
2022-11-19T01:10:11.094Z,9.90
2022-11-19T01:13:16.839Z,10.60
2022-11-19T01:16:09.715Z,10.70
2022-11-19T01:18:59.072Z,10.20
2022-11-19T01:21:47.433Z,10.97
2022-11-19T01:24:35.791Z,10.53
2022-11-19T01:27:24.124Z,10.93
2022-11-19T01:30:13.489Z,10.00
2022-11-19T01:33:03.177Z,10.73
2022-11-19T01:36:02.295Z,12.40
2022-11-19T01:38:51.912Z,11.03
2022-11-19T01:41:40.280Z,11.30
2022-11-19T01:45:02.269Z,10.70
2022-11-19T01:47:50.704Z,10.77
2022-11-19T01:50:45.508Z,11.10
2022-11-19T01:53:35.449Z,10.07
2022-11-19T01:56:24.661Z,11.07
2022-11-19T01:59:20.493Z,11.70
2022-11-19T02:02:09.138Z,12.03
2022-11-19T02:04:58.260Z,11.13
2022-11-19T02:07:54.899Z,11.17
2022-11-19T02:10:51.392Z,11.17
2022-11-19T02:13:44.283Z,11.67
2022-11-19T02:16:39.390Z,11.27
2022-11-19T02:19:52.090Z,11.43
2022-11-19T02:23:06.967Z,11.43
2022-11-19T02:26:17.728Z,11.33
2022-11-19T02:29:16.998Z,12.38
2022-11-19T02:32:14.562Z,11.23
2022-11-19T02:35:18.708Z,10.73
2022-11-19T02:38:16.844Z,10.57
2022-11-19T02:41:27.944Z,10.27
2022-11-19T02:44:54.495Z,11.63
2022-11-19T02:47:50.041Z,10.90
2022-11-19T02:50:42.900Z,11.87
2022-11-19T02:53:32.017Z,12.43
2022-11-19T02:56:48.415Z,12.17
2022-11-19T02:59:58.897Z,12.57
2022-11-19T03:03:10.466Z,8.30
2022-11-19T03:06:01.977Z,12.23
2022-11-19T03:08:50.365Z,11.10
2022-11-19T03:11:38.798Z,11.80
2022-11-19T03:14:52.130Z,11.67
2022-11-19T03:18:03.226Z,10.97
2022-11-19T03:20:56.855Z,10.40
2022-11-19T03:23:50.526Z,11.57
2022-11-19T03:26:43.031Z,12.50
2022-11-19T03:29:35.705Z,10.97
2022-11-19T03:32:28.888Z,11.23
2022-11-19T03:35:23.961Z,10.90
2022-11-19T03:38:18.060Z,11.17
2022-11-19T03:41:08.728Z,10.87
2022-11-19T03:44:01.558Z,8.52
2022-11-19T03:46:54.379Z,11.67
2022-11-19T03:49:45.827Z,11.67
2022-11-19T03:52:35.532Z,10.67
2022-11-19T03:55:32.130Z,10.80
2022-11-19T03:58:20.460Z,10.73
2022-11-19T04:01:09.998Z,11.40
2022-11-19T04:04:15.721Z,11.20
2022-11-19T04:07:04.853Z,11.50
2022-11-19T04:09:54.586Z,12.83
2022-11-19T04:12:42.951Z,12.40
2022-11-19T04:15:31.290Z,11.07
2022-11-19T04:18:19.647Z,10.17
2022-11-19T04:21:08.378Z,9.93
2022-11-19T04:23:56.747Z,11.20
2022-11-19T04:26:46.500Z,10.70
2022-11-19T04:29:34.856Z,10.70
2022-11-19T04:32:23.199Z,10.47
2022-11-19T04:35:12.149Z,10.40
2022-11-19T04:38:00.477Z,10.77
2022-11-19T04:40:48.879Z,10.07
2022-11-19T04:43:38.555Z,10.30
2022-11-19T04:46:26.890Z,10.60
2022-11-19T04:49:15.606Z,10.47
2022-11-19T04:52:03.980Z,10.10
2022-11-19T04:54:52.364Z,10.07
2022-11-19T04:57:40.964Z,9.13
2022-11-19T05:00:30.737Z,9.73
2022-11-19T05:03:19.071Z,10.80
2022-11-19T05:06:07.940Z,9.77
2022-11-19T05:08:56.402Z,9.67
2022-11-19T05:11:44.771Z,9.77
2022-11-19T05:14:33.101Z,10.30
2022-11-19T05:17:23.123Z,10.27
2022-11-19T05:20:11.808Z,10.67
2022-11-19T05:23:00.198Z,9.17
2022-11-19T05:25:48.660Z,9.43
2022-11-19T05:28:39.490Z,9.50
2022-11-19T05:31:28.436Z,9.37
2022-11-19T05:34:18.188Z,10.00
2022-11-19T05:37:06.555Z,9.33
2022-11-19T05:39:54.979Z,9.97
2022-11-19T05:42:43.437Z,9.63
2022-11-19T05:45:31.877Z,9.37
2022-11-19T05:48:20.210Z,9.33
2022-11-19T05:51:13.792Z,9.13
2022-11-19T05:54:02.418Z,9.70
2022-11-19T05:56:50.782Z,10.57
2022-11-19T05:59:43.530Z,10.23
2022-11-19T06:02:32.808Z,9.80
2022-11-19T06:05:21.375Z,10.00
2022-11-19T06:08:11.072Z,10.20
2022-11-19T06:10:59.411Z,9.93
2022-11-19T06:13:47.727Z,9.57
2022-11-19T06:16:36.030Z,9.30
2022-11-19T06:19:25.267Z,9.83
2022-11-19T06:22:13.623Z,9.90
2022-11-19T06:25:03.416Z,9.77
2022-11-19T06:27:53.783Z,9.47
2022-11-19T06:30:42.130Z,7.55
2022-11-19T06:33:30.518Z,9.33
2022-11-19T06:36:19.281Z,9.17
2022-11-19T06:39:07.931Z,9.40
2022-11-19T06:42:18.524Z,9.90
2022-11-19T06:45:09.546Z,7.13
2022-11-19T06:47:57.940Z,8.82
2022-11-19T06:50:46.661Z,9.67
2022-11-19T06:53:35.477Z,9.20
2022-11-19T06:56:23.878Z,8.80
2022-11-19T06:59:13.605Z,9.20
2022-11-19T07:02:02.143Z,9.20
2022-11-19T07:04:50.568Z,10.00
2022-11-19T07:07:38.931Z,10.57
2022-11-19T07:10:27.402Z,9.93
2022-11-19T07:13:15.736Z,9.57
2022-11-19T07:16:05.679Z,9.20
2022-11-19T07:18:54.066Z,9.50
2022-11-19T07:21:42.426Z,9.13
2022-11-19T07:24:30.769Z,9.60
2022-11-19T07:27:19.119Z,9.90
2022-11-19T07:30:08.993Z,15.27
2022-11-19T07:32:58.748Z,10.73
2022-11-19T07:35:47.037Z,11.50
2022-11-19T07:38:37.158Z,9.47
2022-11-19T07:41:43.461Z,16.57
2022-11-19T07:44:31.807Z,12.70
2022-11-19T07:47:20.191Z,10.73
2022-11-19T07:50:10.576Z,10.53
2022-11-19T07:52:59.446Z,7.55
2022-11-19T07:55:47.844Z,8.93
2022-11-19T07:58:36.136Z,10.10
2022-11-19T08:01:25.115Z,15.93
2022-11-19T08:04:13.524Z,14.73
2022-11-19T08:07:04.266Z,13.33
2022-11-19T08:09:52.625Z,10.35
2022-11-19T08:12:40.977Z,9.63
2022-11-19T08:15:29.323Z,10.30
2022-11-19T08:18:17.361Z,9.93
2022-11-19T08:21:06.825Z,9.03
2022-11-19T08:23:56.757Z,9.87
2022-11-19T08:26:45.529Z,9.30
2022-11-19T08:29:33.886Z,10.60
2022-11-19T08:32:22.461Z,9.50
2022-11-19T08:35:11.035Z,9.73
2022-11-19T08:37:59.389Z,10.43
2022-11-19T08:41:13.838Z,10.73
2022-11-19T08:44:01.301Z,10.27
2022-11-19T08:46:50.220Z,10.20
2022-11-19T08:49:38.638Z,9.93
2022-11-19T08:52:26.933Z,11.20
2022-11-19T08:55:15.307Z,9.73
2022-11-19T08:58:06.791Z,9.82
2022-11-19T09:00:56.277Z,10.60
2022-11-19T09:03:45.108Z,10.40
2022-11-19T09:06:35.360Z,10.32
2022-11-19T09:09:23.699Z,9.03
2022-11-19T09:12:12.028Z,9.70
2022-11-19T09:15:01.855Z,9.02
2022-11-19T09:17:50.195Z,10.23
2022-11-19T09:20:38.597Z,10.45
2022-11-19T09:23:28.389Z,10.02
2022-11-19T09:26:18.332Z,10.30
2022-11-19T09:29:06.717Z,11.38
2022-11-19T09:31:56.438Z,11.32
2022-11-19T09:34:44.818Z,12.60
2022-11-19T09:37:34.203Z,11.57
2022-11-19T09:40:24.325Z,11.80
2022-11-19T09:43:23.181Z,10.85
2022-11-19T09:46:18.602Z,11.50
2022-11-19T09:49:13.904Z,11.43
2022-11-19T09:52:11.385Z,10.73
2022-11-19T09:54:59.805Z,10.48
2022-11-19T09:57:52.955Z,9.65
2022-11-19T10:00:41.304Z,10.10
2022-11-19T10:03:33.460Z,11.77
2022-11-19T10:06:29.589Z,10.00
2022-11-19T10:09:31.866Z,9.90
2022-11-19T10:12:34.180Z,8.60
2022-11-19T10:15:28.651Z,9.57
2022-11-19T10:18:28.094Z,9.40
2022-11-19T10:21:23.816Z,8.68
2022-11-19T10:24:18.424Z,6.97
2022-11-19T10:27:16.505Z,7.63
2022-11-19T10:30:13.920Z,7.68
2022-11-19T10:33:05.761Z,7.35
2022-11-19T10:35:59.828Z,7.03
2022-11-19T10:38:56.698Z,7.35
2022-11-19T10:41:50.600Z,6.90
2022-11-19T10:44:42.116Z,6.25
2022-11-19T10:47:35.719Z,6.47
2022-11-19T10:50:26.150Z,6.78
2022-11-19T10:53:19.009Z,7.25
2022-11-19T10:56:14.160Z,6.93
2022-11-19T10:59:12.399Z,6.97
2022-11-19T11:02:04.501Z,7.55
2022-11-19T11:05:06.560Z,7.63
2022-11-19T11:07:57.330Z,7.82
2022-11-19T11:10:47.384Z,6.97
2022-11-19T11:13:58.041Z,7.60
2022-11-19T11:16:49.166Z,7.00
2022-11-19T11:19:37.777Z,7.43
2022-11-19T11:22:27.273Z,7.50
2022-11-19T11:25:21.770Z,7.28
2022-11-19T11:28:15.497Z,6.88
2022-11-19T11:31:06.183Z,6.15
2022-11-19T11:33:58.341Z,5.65
2022-11-19T11:36:46.921Z,7.65
2022-11-19T11:39:37.865Z,8.32
2022-11-19T11:42:28.693Z,8.43
2022-11-19T11:45:31.890Z,7.43
2022-11-19T11:48:22.674Z,7.47
2022-11-19T11:54:18.360Z,7.85
2022-11-19T11:57:18.011Z,7.38
2022-11-19T12:00:32.568Z,7.30
2022-11-19T12:03:21.286Z,7.05
2022-11-19T12:06:16.477Z,7.32
2022-11-19T12:09:14.496Z,6.78
2022-11-19T12:12:09.867Z,7.35
2022-11-19T12:15:05.088Z,7.13
2022-11-19T12:18:05.504Z,7.25
2022-11-19T12:20:58.789Z,7.50
2022-11-19T12:24:03.390Z,6.95
2022-11-19T12:27:01.836Z,7.05
2022-11-19T12:29:58.510Z,6.82
2022-11-19T12:33:09.601Z,6.93
2022-11-19T12:36:07.773Z,6.32
2022-11-19T12:39:03.553Z,6.78
2022-11-19T12:42:23.345Z,6.15
2022-11-19T12:45:18.473Z,7.43
2022-11-19T12:48:32.684Z,7.05
2022-11-19T12:51:33.773Z,7.40
2022-11-19T12:54:41.499Z,7.50
2022-11-19T12:57:41.770Z,7.78
2022-11-19T13:00:32.950Z,7.18
2022-11-19T13:03:35.295Z,8.23
2022-11-19T13:06:33.637Z,7.70
2022-11-19T13:09:36.742Z,7.78
2022-11-19T13:12:33.475Z,8.13
2022-11-19T13:15:26.885Z,8.50
2022-11-19T13:18:18.428Z,7.68
2022-11-19T13:21:16.932Z,7.93
2022-11-19T13:24:13.705Z,7.30
2022-11-19T13:27:05.397Z,7.75
2022-11-19T13:29:59.834Z,7.75
2022-11-19T13:32:58.604Z,7.28
2022-11-19T13:35:51.445Z,6.97
2022-11-19T13:38:47.863Z,6.90
2022-11-19T13:42:01.560Z,6.70
2022-11-19T13:44:55.024Z,6.80
2022-11-19T13:47:46.787Z,7.20
2022-11-19T13:50:41.898Z,6.50
2022-11-19T13:53:35.903Z,6.50
2022-11-19T13:56:39.212Z,6.93
2022-11-19T13:59:32.063Z,6.07
2022-11-19T14:02:52.721Z,6.03
2022-11-19T14:06:22.535Z,6.27
2022-11-19T14:09:23.513Z,5.47
2022-11-19T14:12:42.178Z,6.50
2022-11-19T14:16:04.239Z,5.93
2022-11-19T14:19:12.683Z,5.57
2022-11-19T14:22:18.762Z,5.97
2022-11-19T14:25:27.408Z,5.65
2022-11-19T14:28:42.777Z,5.68
2022-11-19T14:31:31.126Z,5.93
2022-11-19T14:34:28.377Z,6.25
2022-11-19T14:37:21.433Z,6.15
2022-11-19T14:40:18.232Z,6.22
2022-11-19T14:43:43.344Z,6.15
2022-11-19T14:46:33.034Z,6.43
2022-11-19T14:49:27.738Z,6.10
2022-11-19T14:52:22.601Z,5.93
2022-11-19T14:55:22.620Z,6.63
2022-11-19T14:58:22.677Z,6.30
2022-11-19T15:01:20.645Z,5.75
2022-11-19T15:04:14.095Z,6.20
2022-11-19T15:07:03.781Z,5.15
2022-11-19T15:10:08.170Z,6.50
2022-11-19T15:13:31.179Z,5.40
2022-11-19T15:16:22.315Z,5.45
2022-11-19T15:19:35.085Z,5.95
2022-11-19T15:22:45.869Z,7.38
2022-11-19T15:25:45.414Z,7.93
2022-11-19T15:28:46.135Z,6.60
2022-11-19T15:32:00.695Z,7.18
2022-11-19T15:35:11.525Z,6.90
2022-11-19T15:38:05.332Z,6.07
2022-11-19T15:40:57.979Z,6.70
2022-11-19T15:43:51.812Z,6.55
2022-11-19T15:46:45.748Z,6.20
2022-11-19T15:49:37.196Z,6.30
2022-11-19T15:52:30.692Z,7.22
2022-11-19T15:55:21.198Z,6.88
2022-11-19T15:58:17.095Z,7.45
2022-11-19T16:01:06.294Z,6.50
2022-11-19T16:03:55.454Z,7.43
2022-11-19T16:06:45.725Z,6.78
2022-11-19T16:09:36.671Z,7.63
2022-11-19T16:12:45.047Z,7.07
2022-11-19T16:16:05.191Z,6.72
2022-11-19T16:18:53.770Z,6.82
2022-11-19T16:21:43.552Z,7.20
2022-11-19T16:24:50.511Z,6.93
2022-11-19T16:27:41.709Z,7.57
2022-11-19T16:30:38.888Z,6.63
2022-11-19T16:33:29.431Z,6.97
2022-11-19T16:36:19.478Z,6.85
2022-11-19T16:39:11.980Z,7.40
2022-11-19T16:42:17.956Z,7.43
2022-11-19T16:45:15.691Z,7.75
2022-11-19T16:48:04.044Z,7.18
2022-11-19T16:50:52.566Z,7.40
2022-11-19T16:53:49.136Z,6.63
2022-11-19T16:56:44.186Z,6.53
2022-11-19T16:59:34.961Z,6.55
2022-11-19T17:02:29.371Z,5.72
2022-11-19T17:05:20.616Z,6.45
2022-11-19T17:11:35.026Z,6.65
2022-11-19T17:14:41.642Z,6.47
2022-11-19T17:17:41.348Z,6.68
2022-11-19T17:20:55.845Z,6.75
2022-11-19T17:23:49.873Z,6.38
2022-11-19T17:26:39.488Z,6.88
2022-11-19T17:29:28.228Z,7.55
2022-11-19T17:32:16.626Z,8.38
2022-11-19T17:35:09.575Z,8.50
2022-11-19T17:37:59.763Z,7.43
2022-11-19T17:40:49.612Z,7.28
2022-11-19T17:43:57.693Z,7.97
2022-11-19T17:46:46.116Z,7.95
2022-11-19T17:49:34.458Z,7.45
2022-11-19T17:52:26.414Z,7.00
2022-11-19T17:55:20.554Z,8.45
2022-11-19T17:58:09.058Z,7.45
2022-11-19T18:00:57.450Z,7.95
2022-11-19T18:03:46.136Z,7.45
2022-11-19T18:06:34.439Z,7.25
2022-11-19T18:09:24.335Z,7.38
2022-11-19T18:12:16.418Z,8.27
2022-11-19T18:15:05.265Z,8.63
2022-11-19T18:17:54.360Z,8.63
2022-11-19T18:20:42.800Z,7.32
2022-11-19T18:23:31.081Z,8.35
2022-11-19T18:26:23.334Z,8.32
2022-11-19T18:29:11.864Z,8.18
2022-11-19T18:32:01.231Z,7.35
2022-11-19T18:34:49.538Z,7.82
2022-11-19T18:37:37.901Z,8.13
2022-11-19T18:40:26.217Z,8.93
2022-11-19T18:43:37.530Z,8.40
2022-11-19T18:46:28.407Z,7.70
2022-11-19T18:49:16.772Z,7.68
2022-11-19T18:52:07.131Z,7.22
2022-11-19T18:54:55.664Z,7.10
2022-11-19T18:57:43.991Z,7.45
2022-11-19T19:00:33.972Z,8.57
2022-11-19T19:03:22.452Z,7.90
2022-11-19T19:06:11.182Z,7.00
2022-11-19T19:08:59.960Z,7.57
2022-11-19T19:12:11.410Z,7.30
2022-11-19T19:15:01.575Z,7.13
2022-11-19T19:17:51.318Z,7.75
2022-11-19T19:20:39.631Z,7.35
2022-11-19T19:23:28.064Z,7.75
2022-11-19T19:26:18.510Z,8.50
2022-11-19T19:29:06.984Z,8.90
2022-11-19T19:31:55.326Z,8.55
2022-11-19T19:34:45.028Z,8.30
2022-11-19T19:37:33.379Z,7.45
2022-11-19T19:40:21.696Z,8.55
2022-11-19T19:43:10.098Z,6.90
2022-11-19T19:46:04.931Z,7.60
2022-11-19T19:48:56.072Z,7.35
2022-11-19T19:51:46.041Z,7.85
2022-11-19T19:54:34.376Z,8.32
2022-11-19T19:57:22.655Z,8.07
2022-11-19T20:00:12.850Z,7.53
2022-11-19T20:03:01.185Z,7.93
2022-11-19T20:05:50.519Z,8.80
2022-11-19T20:08:40.803Z,8.60
2022-11-19T20:11:29.158Z,8.52
2022-11-19T20:14:17.558Z,7.68
2022-11-19T20:17:06.070Z,8.02
2022-11-19T20:19:54.372Z,8.80
2022-11-19T20:22:42.806Z,8.50
2022-11-19T20:25:33.436Z,10.38
2022-11-19T20:28:21.808Z,7.88
2022-11-19T20:31:13.057Z,7.60
2022-11-19T20:34:03.843Z,7.85
2022-11-19T20:36:52.161Z,7.57
2022-11-19T20:39:40.457Z,8.65
2022-11-19T20:42:52.945Z,7.55
2022-11-19T20:45:41.254Z,7.95
2022-11-19T20:48:29.690Z,8.35
2022-11-19T20:51:19.912Z,7.15
2022-11-19T20:54:09.043Z,5.72
2022-11-19T20:56:58.242Z,7.90
2022-11-19T20:59:47.925Z,8.07
2022-11-19T21:02:36.374Z,10.38
2022-11-19T21:05:24.775Z,15.65
2022-11-19T21:08:13.912Z,17.17
2022-11-19T21:11:04.864Z,15.38
2022-11-19T21:13:53.533Z,12.02
2022-11-19T21:16:43.209Z,11.65
2022-11-19T21:19:31.554Z,13.10
2022-11-19T21:22:19.860Z,15.93
2022-11-19T21:25:12.478Z,17.20
2022-11-19T21:28:01.097Z,16.33
2022-11-19T21:30:52.441Z,13.02
2022-11-19T21:36:30.462Z,9.52
2022-11-19T21:39:19.909Z,8.02
2022-11-19T21:42:08.591Z,7.95
2022-11-19T21:44:57.288Z,7.97
2022-11-19T21:47:45.579Z,8.00
2022-11-19T21:50:35.853Z,8.32
2022-11-19T21:53:24.148Z,8.60
2022-11-19T21:56:12.533Z,8.32
2022-11-19T21:59:00.842Z,8.43
2022-11-19T22:01:54.376Z,9.35
2022-11-19T22:04:43.122Z,9.27
2022-11-19T22:07:32.861Z,8.48
2022-11-19T22:10:21.702Z,9.57
2022-11-19T22:13:10.030Z,10.90
2022-11-19T22:16:00.970Z,8.95
2022-11-19T22:18:49.356Z,8.65
2022-11-19T22:21:37.735Z,9.32
2022-11-19T22:24:27.437Z,8.48
2022-11-19T22:27:15.807Z,8.50
2022-11-19T22:30:06.090Z,8.55
2022-11-19T22:32:54.962Z,9.60
2022-11-19T22:35:43.297Z,8.70
2022-11-19T22:38:31.706Z,8.40
2022-11-19T22:41:22.710Z,8.80
2022-11-19T22:44:11.083Z,8.93
2022-11-19T22:47:00.909Z,8.57
2022-11-19T22:49:49.228Z,8.82
2022-11-19T22:52:37.536Z,9.35
2022-11-19T22:55:25.870Z,8.80
2022-11-19T22:58:15.539Z,9.27
2022-11-19T23:01:04.133Z,10.27
2022-11-19T23:03:53.613Z,9.45
2022-11-19T23:06:42.197Z,10.50
2022-11-19T23:09:30.491Z,10.23
2022-11-19T23:12:36.520Z,10.93
2022-11-19T23:15:26.389Z,10.60
2022-11-19T23:18:14.709Z,10.45
2022-11-19T23:21:05.120Z,11.73
2022-11-19T23:23:53.852Z,8.93
2022-11-19T23:26:42.406Z,10.45
2022-11-19T23:29:30.728Z,9.77
2022-11-19T23:32:20.444Z,10.77
2022-11-19T23:35:09.463Z,10.90
2022-11-19T23:37:57.761Z,11.55
2022-11-19T23:40:46.146Z,12.23
2022-11-19T23:43:35.003Z,12.75
2022-11-19T23:46:25.440Z,12.13
2022-11-19T23:49:15.131Z,13.48
2022-11-19T23:52:03.417Z,13.13
2022-11-19T23:54:51.767Z,11.90
2022-11-19T23:57:40.102Z,12.98
